Time;durP1;ratioP1;P1;durP2;ratioP2;P2;SDS_P1;SDS_P2;PMS_P1;PMS_P2;Temp;Humidity;BMP_temperature;BMP_pressure;BME280_temperature;BME280_humidity;BME280_pressure;Samples;Min_cycle;Max_cycle;Signal;HPM_P1;HPM_P2
2022/02/24 00:00:08;;;;;;;0.10;0.10;;;7.10;99.90;;;;;;5051434;28;20090;-69
2022/02/24 00:02:34;;;;;;;0.00;0.00;;;7.10;99.90;;;;;;5051481;28;20025;-69
2022/02/24 00:05:00;;;;;;;0.93;0.77;;;7.10;99.90;;;;;;5051559;28;20501;-69
2022/02/24 00:07:26;;;;;;;0.00;0.00;;;7.10;99.90;;;;;;5050232;28;20037;-69
2022/02/24 00:09:52;;;;;;;0.20;0.20;;;6.90;99.90;;;;;;5051284;28;20143;-68
2022/02/24 00:12:19;;;;;;;0.00;0.00;;;6.90;99.90;;;;;;5050313;28;20120;-69
2022/02/24 00:14:46;;;;;;;0.20;0.20;;;6.90;99.90;;;;;;5051320;28;20466;-69
2022/02/24 00:17:12;;;;;;;0.03;0.03;;;6.90;99.90;;;;;;5051114;28;20113;-69
2022/02/24 00:19:38;;;;;;;0.10;0.10;;;6.80;99.90;;;;;;5051156;28;20116;-69
2022/02/24 00:22:04;;;;;;;1.08;0.73;;;6.80;99.90;;;;;;5049805;28;20029;-68
2022/02/24 00:24:30;;;;;;;1.70;1.60;;;6.70;99.90;;;;;;5049785;28;20029;-69
2022/02/24 00:26:56;;;;;;;0.00;0.00;;;6.70;99.90;;;;;;5049847;28;20037;-69
2022/02/24 00:29:23;;;;;;;0.32;0.32;;;6.70;99.90;;;;;;5051036;28;20037;-69
2022/02/24 00:31:49;;;;;;;0.00;0.00;;;6.60;99.90;;;;;;5051104;28;20453;-69
2022/02/24 00:34:15;;;;;;;0.08;0.08;;;6.50;99.90;;;;;;5050771;28;20061;-69
2022/02/24 00:36:42;;;;;;;0.17;0.17;;;6.50;99.90;;;;;;5051404;28;20029;-69
2022/02/24 00:39:08;;;;;;;2.17;2.00;;;6.50;99.90;;;;;;5049538;28;20036;-68
2022/02/24 00:41:34;;;;;;;0.20;0.20;;;6.50;99.90;;;;;;5050154;28;20621;-69
2022/02/24 00:43:59;;;;;;;0.17;0.17;;;6.50;99.90;;;;;;5050890;28;20044;-69
2022/02/24 00:46:25;;;;;;;0.15;0.15;;;6.40;99.90;;;;;;5050000;28;20037;-68
2022/02/24 00:48:51;;;;;;;0.35;0.30;;;6.40;99.90;;;;;;5050931;28;20049;-69
2022/02/24 00:51:17;;;;;;;0.00;0.00;;;6.50;99.90;;;;;;5050902;28;20041;-68
2022/02/24 00:53:42;;;;;;;0.13;0.13;;;6.40;99.90;;;;;;5049559;28;20067;-68
2022/02/24 00:56:09;;;;;;;0.10;0.10;;;6.40;99.90;;;;;;5050951;28;20060;-68
2022/02/24 00:58:35;;;;;;;0.00;0.00;;;6.50;99.90;;;;;;5052223;28;20535;-68
2022/02/24 01:01:00;;;;;;;4.45;3.38;;;6.40;99.90;;;;;;5054350;28;20037;-68
2022/02/24 01:03:26;;;;;;;0.25;0.25;;;6.40;99.90;;;;;;5053141;28;20048;-69
2022/02/24 01:05:52;;;;;;;0.30;0.22;;;6.40;99.90;;;;;;5054603;28;20029;-69
2022/02/24 01:08:18;;;;;;;0.03;0.03;;;6.30;99.90;;;;;;5054249;28;20052;-68
2022/02/24 01:10:44;;;;;;;0.47;0.47;;;6.40;99.90;;;;;;5054782;28;20493;-68
2022/02/24 01:13:09;;;;;;;0.17;0.17;;;6.30;99.90;;;;;;5054183;28;20041;-68
2022/02/24 01:15:42;;;;;;;1.15;1.05;;;6.30;99.90;;;;;;5053707;28;20052;-68
2022/02/24 01:18:09;;;;;;;0.10;0.10;;;6.30;99.90;;;;;;5052131;28;20110;-67
2022/02/24 01:20:36;;;;;;;0.15;0.15;;;6.30;99.90;;;;;;5052081;28;20614;-68
2022/02/24 01:23:02;;;;;;;0.08;0.08;;;6.30;99.90;;;;;;5036042;28;20032;-68
2022/02/24 01:25:28;;;;;;;0.30;0.30;;;6.30;99.90;;;;;;5053941;28;20033;-68
2022/02/24 01:27:54;;;;;;;1.52;0.98;;;6.30;99.90;;;;;;5052604;28;20033;-67
2022/02/24 01:30:20;;;;;;;0.05;0.05;;;6.30;99.90;;;;;;5053784;28;20120;-68
2022/02/24 01:32:46;;;;;;;0.30;0.30;;;6.40;99.90;;;;;;5054104;28;20041;-68
2022/02/24 01:35:12;;;;;;;0.10;0.10;;;6.40;99.90;;;;;;5053673;28;20078;-68
2022/02/24 01:37:38;;;;;;;0.10;0.10;;;6.40;99.90;;;;;;5054066;28;20032;-68
2022/02/24 01:40:07;;;;;;;10.50;2.38;;;6.40;99.90;;;;;;5053373;28;20413;-68
2022/02/24 01:42:32;;;;;;;0.05;0.05;;;6.30;99.90;;;;;;5052478;28;20113;-68
2022/02/24 01:44:58;;;;;;;0.20;0.20;;;6.30;99.90;;;;;;5052624;28;20124;-68
2022/02/24 01:47:25;;;;;;;0.20;0.20;;;6.30;99.90;;;;;;5052038;28;20408;-67
2022/02/24 01:49:51;;;;;;;0.10;0.10;;;6.40;99.90;;;;;;5053531;28;20033;-68
2022/02/24 01:52:19;;;;;;;0.08;0.08;;;6.40;99.90;;;;;;5053090;28;20040;-68
2022/02/24 01:54:46;;;;;;;0.10;0.10;;;6.40;99.90;;;;;;5052190;28;20037;-68
2022/02/24 01:57:12;;;;;;;1.63;1.52;;;6.40;99.90;;;;;;5051790;28;20029;-69
2022/02/24 01:59:38;;;;;;;0.82;0.82;;;6.30;99.90;;;;;;5053563;28;20094;-68
2022/02/24 02:02:05;;;;;;;0.28;0.28;;;6.30;99.90;;;;;;5053037;28;20032;-68
2022/02/24 02:04:32;;;;;;;0.15;0.15;;;6.30;99.90;;;;;;5053189;28;20033;-68
2022/02/24 02:06:58;;;;;;;0.10;0.10;;;6.30;99.90;;;;;;5053383;28;20033;-68
2022/02/24 02:09:24;;;;;;;0.10;0.10;;;6.20;99.90;;;;;;5052011;28;20058;-68
2022/02/24 02:11:49;;;;;;;0.20;0.20;;;6.30;99.90;;;;;;5051928;28;20520;-68
2022/02/24 02:14:15;;;;;;;1.95;1.58;;;6.20;99.90;;;;;;5052844;28;20486;-68
2022/02/24 02:16:50;;;;;;;5.05;2.25;;;6.20;99.90;;;;;;5053069;28;20453;-69
2022/02/24 02:19:17;;;;;;;0.90;0.90;;;6.20;99.90;;;;;;5051827;28;20033;-69
2022/02/24 02:21:44;;;;;;;0.50;0.50;;;6.20;99.90;;;;;;5053028;28;20029;-68
2022/02/24 02:24:10;;;;;;;0.10;0.10;;;6.20;99.90;;;;;;5052815;28;20090;-69
2022/02/24 02:26:36;;;;;;;0.10;0.10;;;6.20;99.90;;;;;;5051509;28;20116;-69
2022/02/24 02:29:06;;;;;;;0.10;0.10;;;6.30;99.90;;;;;;5052783;28;20040;-68
2022/02/24 02:31:32;;;;;;;0.95;0.70;;;6.30;99.90;;;;;;5052756;28;20032;-69
2022/02/24 02:34:07;;;;;;;0.10;0.10;;;6.40;99.90;;;;;;5051724;28;20037;-69
2022/02/24 02:36:34;;;;;;;0.10;0.10;;;6.30;99.90;;;;;;5052426;28;20039;-69
2022/02/24 02:39:01;;;;;;;0.13;0.13;;;6.30;99.90;;;;;;5051617;28;20390;-69
2022/02/24 02:41:33;;;;;;;0.10;0.10;;;6.30;99.90;;;;;;5052430;28;20066;-69
2022/02/24 02:44:00;;;;;;;0.25;0.25;;;6.20;99.90;;;;;;5051138;28;20033;-69
2022/02/24 02:46:27;;;;;;;0.55;0.55;;;6.30;99.90;;;;;;5034580;28;20045;-69
2022/02/24 02:48:53;;;;;;;0.00;0.00;;;6.20;99.90;;;;;;5052087;28;20049;-69
2022/02/24 02:51:20;;;;;;;0.10;0.10;;;6.20;99.90;;;;;;5050907;28;20029;-68
2022/02/24 02:53:46;;;;;;;0.10;0.10;;;6.20;99.90;;;;;;5050830;28;20049;-68
2022/02/24 02:56:13;;;;;;;0.40;0.40;;;6.20;99.90;;;;;;5052170;28;20025;-68
2022/02/24 02:58:39;;;;;;;0.10;0.10;;;6.10;99.90;;;;;;5050776;28;20033;-68
2022/02/24 03:01:05;;;;;;;1.25;1.25;;;6.10;99.90;;;;;;5050821;28;20513;-68
2022/02/24 03:03:31;;;;;;;0.10;0.10;;;6.10;99.90;;;;;;5051952;28;20104;-68
2022/02/24 03:05:57;;;;;;;2.42;1.65;;;6.20;99.90;;;;;;5051052;28;20107;-68
2022/02/24 03:08:23;;;;;;;0.77;0.77;;;6.30;99.90;;;;;;5051623;28;20059;-68
2022/02/24 03:10:51;;;;;;;0.10;0.10;;;6.30;99.90;;;;;;5051895;28;20466;-68
2022/02/24 03:13:18;;;;;;;0.10;0.10;;;6.30;99.90;;;;;;5050768;28;20033;-68
2022/02/24 03:15:44;;;;;;;0.00;0.00;;;6.40;99.90;;;;;;5051738;28;20029;-68
2022/02/24 03:18:11;;;;;;;0.10;0.10;;;6.40;99.90;;;;;;5050338;28;20078;-68
2022/02/24 03:20:37;;;;;;;0.10;0.10;;;6.40;99.90;;;;;;5050339;28;20032;-69
2022/02/24 03:23:06;;;;;;;0.80;0.80;;;6.50;99.90;;;;;;5050412;28;20448;-68
2022/02/24 03:25:32;;;;;;;0.10;0.10;;;6.50;99.90;;;;;;5050654;28;20037;-68
2022/02/24 03:27:59;;;;;;;0.08;0.08;;;6.50;99.90;;;;;;5051844;28;20116;-68
2022/02/24 03:30:27;;;;;;;1.35;1.10;;;6.40;99.90;;;;;;5050294;28;20044;-68
2022/02/24 03:32:54;;;;;;;0.10;0.10;;;6.50;99.90;;;;;;5051772;28;20025;-68
2022/02/24 03:35:20;;;;;;;0.15;0.15;;;6.50;99.90;;;;;;5051418;28;20036;-69
2022/02/24 03:37:47;;;;;;;0.10;0.10;;;6.40;99.90;;;;;;5050390;28;20033;-69
2022/02/24 03:40:16;;;;;;;0.30;0.30;;;6.40;99.90;;;;;;5051437;28;20041;-69
2022/02/24 03:42:43;;;;;;;0.45;0.45;;;6.40;99.90;;;;;;5051452;28;20029;-68
2022/02/24 03:45:09;;;;;;;0.00;0.00;;;6.40;99.90;;;;;;5050315;28;20029;-67
2022/02/24 03:47:36;;;;;;;0.00;0.00;;;6.40;99.90;;;;;;5051231;28;20064;-68
2022/02/24 03:50:06;;;;;;;0.32;0.30;;;6.40;99.90;;;;;;5050453;28;20088;-68
2022/02/24 03:52:32;;;;;;;0.10;0.10;;;6.40;99.90;;;;;;5049966;28;20478;-68
2022/02/24 03:54:57;;;;;;;0.10;0.10;;;6.40;99.90;;;;;;5051714;28;20033;-68
2022/02/24 03:57:23;;;;;;;0.50;0.50;;;6.40;99.90;;;;;;5049969;28;20543;-68
2022/02/24 03:59:49;;;;;;;0.25;0.25;;;6.40;99.90;;;;;;5049925;28;20037;-68
2022/02/24 04:02:15;;;;;;;0.10;0.10;;;6.40;99.90;;;;;;5051454;28;20029;-67
2022/02/24 04:04:42;;;;;;;0.10;0.10;;;6.40;99.90;;;;;;5051522;28;20131;-68
2022/02/24 04:07:08;;;;;;;0.43;0.43;;;6.40;99.90;;;;;;5051481;28;20025;-68
2022/02/24 04:09:35;;;;;;;0.10;0.10;;;6.50;99.90;;;;;;5049700;28;20043;-68
2022/02/24 04:12:02;;;;;;;0.10;0.10;;;6.40;99.90;;;;;;5049967;28;20040;-68
2022/02/24 04:14:28;;;;;;;0.20;0.20;;;6.40;99.90;;;;;;5049582;28;20037;-68
2022/02/24 04:16:54;;;;;;;0.05;0.05;;;6.50;99.90;;;;;;5051096;28;20029;-68
2022/02/24 04:19:20;;;;;;;0.75;0.75;;;6.50;99.90;;;;;;5049730;28;20048;-69
2022/02/24 04:21:46;;;;;;;0.10;0.10;;;6.60;99.90;;;;;;5051379;28;20029;-68
2022/02/24 04:24:11;;;;;;;0.10;0.10;;;6.60;99.90;;;;;;5051125;28;20116;-68
2022/02/24 04:26:37;;;;;;;0.50;0.50;;;6.60;99.90;;;;;;5049531;28;20116;-69
2022/02/24 04:29:03;;;;;;;0.10;0.10;;;6.60;99.90;;;;;;5049674;28;20506;-69
2022/02/24 04:31:29;;;;;;;0.10;0.10;;;6.60;99.90;;;;;;5050938;28;20048;-69
2022/02/24 04:33:55;;;;;;;0.10;0.10;;;6.60;99.90;;;;;;5051786;28;20029;-69
2022/02/24 04:36:23;;;;;;;0.80;0.80;;;6.60;99.90;;;;;;5053804;28;20382;-69
2022/02/24 04:38:49;;;;;;;0.10;0.10;;;6.60;99.90;;;;;;5054554;28;20050;-69
2022/02/24 04:41:15;;;;;;;0.10;0.10;;;6.60;99.90;;;;;;5053675;28;20126;-69
2022/02/24 04:43:41;;;;;;;0.10;0.10;;;6.60;99.90;;;;;;5054989;28;20036;-69
2022/02/24 04:46:07;;;;;;;0.10;0.10;;;6.70;99.90;;;;;;5054838;28;20053;-69
2022/02/24 04:48:33;;;;;;;1.08;0.95;;;6.70;99.90;;;;;;5053026;28;20566;-68
2022/02/24 04:50:59;;;;;;;0.10;0.10;;;6.70;99.90;;;;;;5054531;28;20733;-68
2022/02/24 04:53:25;;;;;;;0.20;0.20;;;6.70;99.90;;;;;;5068286;28;20033;-75
2022/02/24 04:55:51;;;;;;;1.35;1.20;;;6.80;99.90;;;;;;5074781;28;20052;-73
2022/02/24 04:58:17;;;;;;;0.47;0.47;;;6.90;99.90;;;;;;5072121;28;20527;-74
2022/02/24 05:00:43;;;;;;;0.03;0.03;;;6.90;99.90;;;;;;5069620;28;20075;-74
2022/02/24 05:03:08;;;;;;;0.20;0.20;;;7.00;99.90;;;;;;5054349;28;20572;-73
2022/02/24 05:05:35;;;;;;;1.65;1.55;;;7.00;99.90;;;;;;5054550;28;20048;-72
2022/02/24 05:08:03;;;;;;;0.47;0.38;;;7.00;99.90;;;;;;5053390;28;20508;-76
2022/02/24 05:10:29;;;;;;;0.40;0.40;;;7.00;99.90;;;;;;5053930;28;20044;-74
2022/02/24 05:12:55;;;;;;;0.10;0.10;;;7.00;99.90;;;;;;5054024;28;20037;-66
2022/02/24 05:15:21;;;;;;;0.00;0.00;;;7.00;99.90;;;;;;5053888;28;20028;-66
2022/02/24 05:17:49;;;;;;;0.10;0.10;;;7.00;99.90;;;;;;5054204;28;20509;-66
2022/02/24 05:20:16;;;;;;;0.00;0.00;;;7.00;99.90;;;;;;5053800;28;20497;-64
2022/02/24 05:22:43;;;;;;;0.10;0.10;;;7.00;99.90;;;;;;5052993;28;20167;-66
2022/02/24 05:25:12;;;;;;;0.20;0.20;;;7.00;99.90;;;;;;5053963;28;20398;-66
2022/02/24 05:27:38;;;;;;;0.00;0.00;;;7.10;99.90;;;;;;5052625;28;20040;-66
2022/02/24 05:30:05;;;;;;;0.63;0.63;;;7.00;99.90;;;;;;5052391;28;20339;-65
2022/02/24 05:32:32;;;;;;;0.52;0.52;;;7.10;99.90;;;;;;5052724;28;20033;-65
2022/02/24 05:34:57;;;;;;;0.52;0.52;;;7.10;99.90;;;;;;5052579;28;20158;-63
2022/02/24 05:37:26;;;;;;;1.50;1.40;;;7.20;99.90;;;;;;5052320;28;20044;-65
2022/02/24 05:39:55;;;;;;;0.10;0.10;;;7.20;99.90;;;;;;5053605;28;20036;-67
2022/02/24 05:42:24;;;;;;;1.00;1.00;;;7.30;99.90;;;;;;5053331;28;20394;-64
2022/02/24 05:44:50;;;;;;;0.00;0.00;;;7.30;99.90;;;;;;5053042;28;20497;-65
2022/02/24 05:47:17;;;;;;;0.35;0.35;;;7.20;99.90;;;;;;5052051;28;20097;-64
2022/02/24 05:49:43;;;;;;;0.00;0.00;;;7.30;99.90;;;;;;5052547;28;20478;-64
2022/02/24 05:52:09;;;;;;;0.10;0.10;;;7.30;99.90;;;;;;5052573;28;20783;-65
2022/02/24 05:54:35;;;;;;;0.10;0.10;;;7.30;99.90;;;;;;5053214;28;20036;-68
2022/02/24 05:57:04;;;;;;;0.40;0.40;;;7.30;99.90;;;;;;5053702;28;20037;-67
2022/02/24 05:59:30;;;;;;;1.75;0.85;;;7.30;99.90;;;;;;5051579;28;20032;-68
2022/02/24 06:01:56;;;;;;;0.25;0.25;;;7.30;99.90;;;;;;5053113;28;20508;-66
2022/02/24 06:04:22;;;;;;;0.00;0.00;;;7.30;99.90;;;;;;5053337;28;20033;-67
2022/02/24 06:06:49;;;;;;;0.13;0.13;;;7.30;99.90;;;;;;5053122;28;20026;-68
2022/02/24 06:09:16;;;;;;;0.00;0.00;;;7.30;99.90;;;;;;5034880;28;20048;-68
2022/02/24 06:11:41;;;;;;;0.32;0.32;;;7.30;99.90;;;;;;5051966;28;20111;-67
2022/02/24 06:14:08;;;;;;;0.00;0.00;;;7.40;99.90;;;;;;5053272;28;20067;-67
2022/02/24 06:16:34;;;;;;;0.40;0.40;;;7.30;99.90;;;;;;5051815;28;20118;-67
2022/02/24 06:19:00;;;;;;;0.00;0.00;;;7.40;99.90;;;;;;5053044;28;20083;-67
2022/02/24 06:21:25;;;;;;;0.10;0.10;;;7.40;99.90;;;;;;5052592;28;20059;-67
2022/02/24 06:23:51;;;;;;;0.10;0.10;;;7.40;99.90;;;;;;5052685;28;20090;-67
2022/02/24 06:26:17;;;;;;;0.17;0.17;;;7.40;99.90;;;;;;5052559;28;20032;-67
2022/02/24 06:28:42;;;;;;;0.45;0.45;;;7.40;99.90;;;;;;5051388;28;20041;-67
2022/02/24 06:31:08;;;;;;;0.10;0.10;;;7.40;99.90;;;;;;5052482;28;20032;-72
2022/02/24 06:33:35;;;;;;;0.20;0.20;;;7.40;99.90;;;;;;5052464;28;20115;-67
2022/02/24 06:36:02;;;;;;;0.00;0.00;;;7.40;99.90;;;;;;5051158;28;20025;-68
2022/02/24 06:38:28;;;;;;;1.55;0.95;;;7.30;99.90;;;;;;5052262;28;20032;-69
2022/02/24 06:40:54;;;;;;;0.32;0.32;;;7.40;99.90;;;;;;5051089;28;20037;-69
2022/02/24 06:43:21;;;;;;;0.00;0.00;;;7.40;99.90;;;;;;5052278;28;20024;-69
2022/02/24 06:45:47;;;;;;;0.10;0.10;;;7.40;99.90;;;;;;5052489;28;20079;-66
2022/02/24 06:48:12;;;;;;;0.03;0.03;;;7.40;99.90;;;;;;5052212;28;20049;-67
2022/02/24 06:50:38;;;;;;;0.10;0.10;;;7.40;99.90;;;;;;5051857;28;20047;-67
2022/02/24 06:53:04;;;;;;;0.20;0.20;;;7.50;99.90;;;;;;5052213;28;20041;-67
2022/02/24 06:55:30;;;;;;;0.00;0.00;;;7.50;99.90;;;;;;5063367;28;20055;-66
2022/02/24 06:57:56;;;;;;;0.10;0.10;;;7.50;99.90;;;;;;5072013;28;20119;-67
2022/02/24 07:00:23;;;;;;;0.10;0.10;;;7.50;99.90;;;;;;5072036;28;20115;-67
2022/02/24 07:02:49;;;;;;;0.00;0.00;;;7.40;99.90;;;;;;5059796;28;20111;-67
2022/02/24 07:05:14;;;;;;;0.10;0.10;;;7.50;99.90;;;;;;5051995;28;20401;-67
2022/02/24 07:07:40;;;;;;;2.20;0.63;;;7.60;99.90;;;;;;5052404;28;20117;-67
2022/02/24 07:10:10;;;;;;;0.03;0.03;;;7.50;99.90;;;;;;5052123;28;20477;-67
2022/02/24 07:12:36;;;;;;;0.00;0.00;;;7.60;99.90;;;;;;5052084;28;20118;-67
2022/02/24 07:15:04;;;;;;;2.63;1.35;;;7.60;99.90;;;;;;5051805;28;20554;-67
2022/02/24 07:17:29;;;;;;;0.00;0.00;;;7.60;99.90;;;;;;5051967;28;20127;-66
2022/02/24 07:19:55;;;;;;;0.10;0.10;;;7.60;99.90;;;;;;5051694;28;20159;-67
2022/02/24 07:22:21;;;;;;;0.52;0.52;;;7.60;99.90;;;;;;5050377;28;20045;-66
2022/02/24 07:24:47;;;;;;;0.10;0.10;;;7.70;99.90;;;;;;5050246;28;20037;-66
2022/02/24 07:27:13;;;;;;;0.68;0.68;;;7.70;99.90;;;;;;5051802;28;20022;-67
2022/02/24 07:29:39;;;;;;;0.10;0.10;;;7.80;99.90;;;;;;5051277;28;20039;-66
2022/02/24 07:32:05;;;;;;;0.73;0.68;;;7.80;99.90;;;;;;5050433;28;20033;-66
2022/02/24 07:34:32;;;;;;;0.15;0.15;;;7.80;99.90;;;;;;5051475;28;20044;-66
2022/02/24 07:36:58;;;;;;;1.95;1.23;;;7.80;99.90;;;;;;5051320;28;20040;-66
2022/02/24 07:39:24;;;;;;;43.53;1.65;;;7.90;99.90;;;;;;5049934;28;20117;-69
2022/02/24 07:41:50;;;;;;;0.10;0.10;;;7.90;99.90;;;;;;5067029;28;20037;-69
2022/02/24 07:44:16;;;;;;;1.02;0.65;;;7.90;99.90;;;;;;5051713;28;20064;-69
2022/02/24 07:46:42;;;;;;;0.00;0.00;;;7.90;99.90;;;;;;5051235;28;20032;-68
2022/02/24 07:49:07;;;;;;;0.00;0.00;;;7.90;99.90;;;;;;5051819;28;20501;-69
2022/02/24 07:51:33;;;;;;;0.10;0.10;;;7.90;99.90;;;;;;5050479;28;20037;-68
2022/02/24 07:53:59;;;;;;;0.00;0.00;;;8.00;99.90;;;;;;5050076;28;20485;-69
2022/02/24 07:56:25;;;;;;;0.17;0.17;;;8.00;99.90;;;;;;5049966;28;20029;-69
2022/02/24 07:58:51;;;;;;;0.50;0.50;;;8.00;99.90;;;;;;5051393;28;20539;-69
2022/02/24 08:01:21;;;;;;;0.57;0.57;;;8.00;99.90;;;;;;5050905;28;20489;-69
2022/02/24 08:03:47;;;;;;;0.10;0.10;;;8.00;99.90;;;;;;5050955;28;20033;-68
2022/02/24 08:06:13;;;;;;;0.10;0.10;;;8.00;99.90;;;;;;5051440;28;20044;-69
2022/02/24 08:08:38;;;;;;;0.20;0.20;;;8.10;99.90;;;;;;5054515;28;20064;-69
2022/02/24 08:11:04;;;;;;;0.47;0.47;;;8.10;99.90;;;;;;5055500;28;20061;-69
2022/02/24 08:13:30;;;;;;;0.20;0.20;;;8.10;99.90;;;;;;5055109;28;20029;-70
2022/02/24 08:15:56;;;;;;;0.80;0.55;;;8.10;99.90;;;;;;5055079;28;20082;-69
2022/02/24 08:18:22;;;;;;;0.00;0.00;;;8.10;99.90;;;;;;5054939;28;20029;-69
2022/02/24 08:20:48;;;;;;;0.10;0.10;;;8.10;99.90;;;;;;5055223;28;20497;-69
2022/02/24 08:23:15;;;;;;;0.10;0.10;;;8.10;99.90;;;;;;5054915;28;20546;-69
2022/02/24 08:25:41;;;;;;;0.10;0.10;;;8.20;99.90;;;;;;5053707;28;20481;-69
2022/02/24 08:28:07;;;;;;;0.70;0.70;;;8.20;99.90;;;;;;5055213;28;20033;-68
2022/02/24 08:30:33;;;;;;;0.50;0.50;;;8.20;99.90;;;;;;5055065;28;20062;-68
2022/02/24 08:32:58;;;;;;;0.00;0.00;;;8.30;99.90;;;;;;5055034;28;20044;-69
2022/02/24 08:35:25;;;;;;;0.47;0.47;;;8.40;99.90;;;;;;5054988;28;20037;-69
2022/02/24 08:37:51;;;;;;;0.28;0.28;;;8.40;99.90;;;;;;5053500;28;20041;-69
2022/02/24 08:40:20;;;;;;;0.00;0.00;;;8.50;99.90;;;;;;5053124;28;20052;-69
2022/02/24 08:42:48;;;;;;;0.10;0.10;;;8.50;99.90;;;;;;5054992;28;20044;-69
2022/02/24 08:45:14;;;;;;;0.10;0.10;;;8.60;99.90;;;;;;5054990;28;20025;-69
2022/02/24 08:47:41;;;;;;;0.10;0.10;;;8.60;99.90;;;;;;5074087;28;20048;-69
2022/02/24 08:50:10;;;;;;;0.80;0.80;;;8.70;99.90;;;;;;5074456;28;20029;-68
2022/02/24 08:52:36;;;;;;;0.10;0.10;;;8.70;99.90;;;;;;5074438;28;20072;-68
2022/02/24 08:55:03;;;;;;;0.15;0.15;;;8.70;99.90;;;;;;5074236;28;20040;-68
2022/02/24 08:57:29;;;;;;;0.22;0.22;;;8.70;99.90;;;;;;5073154;28;20037;-69
2022/02/24 08:59:54;;;;;;;0.10;0.10;;;8.80;99.90;;;;;;5074541;28;20102;-70
2022/02/24 09:02:20;;;;;;;0.30;0.30;;;8.80;99.90;;;;;;5074456;28;20408;-68
2022/02/24 09:04:46;;;;;;;0.10;0.10;;;8.80;99.90;;;;;;5070658;28;20029;-69
2022/02/24 09:07:12;;;;;;;0.00;0.00;;;8.80;99.90;;;;;;5052882;28;20470;-67
2022/02/24 09:09:38;;;;;;;0.40;0.40;;;8.80;99.90;;;;;;5052703;28;20056;-68
2022/02/24 09:12:04;;;;;;;0.00;0.00;;;8.90;99.90;;;;;;5052960;28;20132;-69
2022/02/24 09:14:30;;;;;;;0.20;0.20;;;8.90;99.90;;;;;;5053980;28;20559;-69
2022/02/24 09:16:56;;;;;;;0.00;0.00;;;9.00;99.90;;;;;;5053927;28;20033;-68
2022/02/24 09:19:23;;;;;;;0.10;0.10;;;9.10;99.90;;;;;;5068787;28;20033;-69
2022/02/24 09:21:49;;;;;;;0.20;0.20;;;9.10;99.90;;;;;;5052334;28;20029;-68
2022/02/24 09:24:14;;;;;;;0.10;0.10;;;9.10;99.90;;;;;;5052673;28;20447;-68
2022/02/24 09:26:40;;;;;;;0.00;0.00;;;9.20;99.90;;;;;;5053977;28;20029;-69
2022/02/24 09:29:07;;;;;;;0.00;0.00;;;9.20;99.90;;;;;;5053585;28;20033;-69
2022/02/24 09:31:34;;;;;;;0.10;0.10;;;9.30;99.90;;;;;;5052403;28;20512;-69
2022/02/24 09:34:00;;;;;;;0.98;0.98;;;9.30;99.90;;;;;;5053859;28;20068;-68
2022/02/24 09:36:26;;;;;;;0.00;0.00;;;9.40;99.90;;;;;;5053629;28;20055;-68
2022/02/24 09:38:52;;;;;;;0.00;0.00;;;9.40;99.90;;;;;;5053898;28;20467;-68
2022/02/24 09:41:23;;;;;;;0.00;0.00;;;9.40;99.90;;;;;;5053603;28;20025;-69
2022/02/24 09:43:49;;;;;;;0.08;0.08;;;9.40;99.90;;;;;;5052450;28;20033;-69
2022/02/24 09:46:17;;;;;;;0.30;0.30;;;9.40;99.90;;;;;;5053445;28;20040;-68
2022/02/24 09:48:44;;;;;;;0.10;0.10;;;9.50;99.90;;;;;;5053168;28;20437;-69
2022/02/24 09:51:14;;;;;;;0.40;0.40;;;9.50;99.90;;;;;;5053792;28;20462;-68
2022/02/24 09:53:41;;;;;;;0.00;0.00;;;9.60;99.90;;;;;;5052048;28;20036;-68
2022/02/24 09:56:20;;;;;;;0.00;0.00;;;9.80;99.90;;;;;;5053571;28;20049;-69
2022/02/24 09:58:52;;;;;;;0.10;0.10;;;9.90;99.90;;;;;;5052266;28;20172;-69
2022/02/24 10:01:18;;;;;;;0.00;0.00;;;10.00;99.90;;;;;;5035548;28;20021;-68
2022/02/24 10:03:54;;;;;;;0.00;0.00;;;10.20;99.90;;;;;;5053489;28;20409;-69
2022/02/24 10:06:42;;;;;;;0.10;0.10;;;10.10;99.90;;;;;;5051881;28;20049;-69
2022/02/24 10:09:11;;;;;;;0.00;0.00;;;10.20;99.90;;;;;;5035798;28;20040;-69
2022/02/24 10:11:39;;;;;;;0.00;0.00;;;10.30;99.90;;;;;;5053055;28;20029;-69
2022/02/24 10:14:07;;;;;;;1.27;1.17;;;10.40;99.90;;;;;;5053246;28;20029;-67
2022/02/24 10:17:03;;;;;;;0.08;0.08;;;10.40;99.90;;;;;;5052963;28;20508;-67
2022/02/24 10:19:36;;;;;;;0.00;0.00;;;10.30;99.90;;;;;;5051441;28;20033;-68
2022/02/24 10:22:26;;;;;;;0.20;0.20;;;10.50;99.90;;;;;;5052815;28;20036;-68
2022/02/24 10:25:15;;;;;;;0.00;0.00;;;10.60;99.90;;;;;;5051688;28;20029;-68
2022/02/24 10:27:44;;;;;;;0.00;0.00;;;10.50;99.90;;;;;;5051504;28;20033;-68
2022/02/24 10:30:16;;;;;;;0.00;0.00;;;10.40;99.90;;;;;;5051997;28;20495;-67
2022/02/24 10:32:50;;;;;;;0.15;0.15;;;10.50;99.90;;;;;;5052165;28;20025;-68
2022/02/24 10:35:40;;;;;;;1.40;1.30;;;10.50;99.90;;;;;;5053019;28;20056;-68
2022/02/24 10:38:09;;;;;;;0.38;0.38;;;10.60;99.90;;;;;;5052404;28;20063;-66
2022/02/24 10:40:48;;;;;;;0.10;0.10;;;10.60;99.90;;;;;;5053921;28;20099;-67
2022/02/24 10:43:25;;;;;;;0.00;0.00;;;10.60;99.90;;;;;;5052480;28;20358;-68
2022/02/24 10:46:17;;;;;;;1.02;0.65;;;10.60;99.90;;;;;;5052370;28;20039;-68
2022/02/24 10:48:58;;;;;;;0.32;0.32;;;10.60;99.90;;;;;;5050917;28;20493;-67
2022/02/24 10:51:25;;;;;;;0.63;0.63;;;10.80;99.90;;;;;;5051365;28;20048;-66
2022/02/24 10:54:08;;;;;;;0.00;0.00;;;10.90;99.90;;;;;;5050704;28;20397;-66
2022/02/24 10:56:40;;;;;;;0.25;0.25;;;10.90;99.90;;;;;;5052316;28;20025;-68
2022/02/24 10:59:06;;;;;;;0.08;0.08;;;10.90;99.90;;;;;;5050911;28;20131;-72
2022/02/24 11:01:33;;;;;;;0.20;0.20;;;11.00;99.90;;;;;;5051895;28;20044;-74
2022/02/24 11:04:05;;;;;;;0.00;0.00;;;11.00;99.90;;;;;;5051849;28;20033;-75
2022/02/24 11:06:37;;;;;;;0.10;0.10;;;11.10;99.90;;;;;;5050934;28;20033;-70
2022/02/24 11:09:06;;;;;;;0.30;0.30;;;11.20;99.90;;;;;;5052342;28;20029;-77
2022/02/24 11:11:35;;;;;;;0.00;0.00;;;11.30;99.90;;;;;;5050310;28;20112;-75
2022/02/24 11:14:05;;;;;;;0.20;0.20;;;11.50;99.90;;;;;;5050702;28;20099;-76
2022/02/24 11:16:32;;;;;;;0.00;0.00;;;11.60;99.90;;;;;;5051739;28;20021;-78
2022/02/24 11:18:59;;;;;;;0.00;0.00;;;11.80;99.90;;;;;;5051809;28;20486;-70
2022/02/24 11:21:27;;;;;;;0.00;0.00;;;12.10;99.90;;;;;;5051846;28;20037;-77
2022/02/24 11:23:55;;;;;;;0.00;0.00;;;12.30;99.90;;;;;;5050593;28;20025;-70
2022/02/24 11:26:20;;;;;;;0.00;0.00;;;12.20;99.90;;;;;;5051817;28;20045;-72
2022/02/24 11:29:14;;;;;;;3.53;2.92;;;12.10;99.90;;;;;;5051746;28;20040;-68
2022/02/24 11:31:48;;;;;;;0.00;0.00;;;12.10;99.90;;;;;;5067335;28;20052;-66
2022/02/24 11:34:14;;;;;;;0.70;0.70;;;12.00;99.90;;;;;;5051590;28;20494;-73
2022/02/24 11:36:43;;;;;;;0.00;0.00;;;12.10;99.90;;;;;;5051260;28;20106;-66
2022/02/24 11:39:12;;;;;;;0.08;0.08;;;12.20;99.90;;;;;;5050550;28;20029;-70
2022/02/24 11:41:53;;;;;;;0.00;0.00;;;12.20;99.90;;;;;;5051210;28;20036;-70
2022/02/24 11:44:33;;;;;;;0.00;0.00;;;12.20;99.90;;;;;;5051536;28;20037;-70
2022/02/24 11:47:02;;;;;;;7.57;1.35;;;12.30;99.90;;;;;;5051186;28;20088;-69
2022/02/24 11:49:53;;;;;;;0.15;0.15;;;12.30;99.90;;;;;;5050086;28;20036;-71
2022/02/24 11:52:31;;;;;;;0.17;0.17;;;12.60;99.90;;;;;;5051570;28;20037;-69
2022/02/24 11:54:58;;;;;;;0.00;0.00;;;12.70;99.90;;;;;;5050002;28;20049;-71
2022/02/24 11:57:32;;;;;;;0.10;0.10;;;12.70;99.90;;;;;;5049800;28;20044;-70
2022/02/24 12:00:16;;;;;;;0.00;0.00;;;12.80;99.90;;;;;;5051048;28;20036;-70
2022/02/24 12:02:49;;;;;;;2.50;1.25;;;12.80;99.90;;;;;;5050881;28;20037;-68
2022/02/24 12:05:26;;;;;;;0.00;0.00;;;12.70;99.90;;;;;;5050142;28;20036;-70
2022/02/24 12:08:13;;;;;;;0.00;0.00;;;12.60;99.90;;;;;;5050788;28;20506;-71
2022/02/24 12:10:43;;;;;;;0.00;0.00;;;12.50;99.90;;;;;;5049536;28;20044;-70
2022/02/24 12:13:27;;;;;;;0.00;0.00;;;12.50;99.90;;;;;;5051173;28;20039;-72
2022/02/24 12:16:15;;;;;;;0.50;0.50;;;12.50;99.90;;;;;;5050807;28;20033;-71
2022/02/24 12:18:43;;;;;;;8.50;3.80;;;12.50;99.90;;;;;;5050455;28;20033;-70
2022/02/24 12:21:35;;;;;;;0.00;0.00;;;12.50;99.90;;;;;;5049090;28;20396;-70
2022/02/24 12:24:10;;;;;;;0.05;0.05;;;12.50;99.90;;;;;;5049579;28;20389;-71
2022/02/24 12:26:39;;;;;;;0.00;0.00;;;12.40;99.90;;;;;;5049823;28;20128;-71
2022/02/24 12:29:37;;;;;;;0.47;0.25;;;12.50;99.90;;;;;;5051121;28;20033;-70
2022/02/24 12:32:06;;;;;;;0.40;0.30;;;12.60;99.90;;;;;;5050070;28;20037;-70
2022/02/24 12:34:34;;;;;;;0.00;0.00;;;12.60;99.90;;;;;;5052068;28;20049;-71
2022/02/24 12:37:10;;;;;;;0.80;0.80;;;12.60;99.90;;;;;;5071046;28;20055;-70
2022/02/24 12:39:37;;;;;;;0.00;0.00;;;12.60;99.90;;;;;;5070566;28;20351;-70
2022/02/24 12:42:05;;;;;;;0.00;0.00;;;12.70;99.90;;;;;;5069809;28;20033;-71
2022/02/24 12:44:32;;;;;;;0.03;0.03;;;12.60;99.90;;;;;;5069926;28;20086;-70
2022/02/24 12:46:58;;;;;;;0.75;0.75;;;12.50;99.90;;;;;;5070559;28;20517;-71
2022/02/24 12:49:25;;;;;;;3.65;1.10;;;12.50;99.90;;;;;;5070474;28;20055;-70
2022/02/24 12:52:00;;;;;;;0.00;0.00;;;12.40;99.90;;;;;;5069324;28;20029;-70
2022/02/24 12:54:26;;;;;;;0.00;0.00;;;12.30;99.90;;;;;;5070821;28;20029;-70
2022/02/24 12:56:56;;;;;;;4.57;3.30;;;12.30;99.90;;;;;;5072989;28;20043;-71
2022/02/24 12:59:25;;;;;;;0.00;0.00;;;12.20;99.90;;;;;;5072692;28;20753;-70